KARV/ARV METAR and TAF weather

Enter ICAO airport designator
Station Type Date Time Source
KARV METAR 2018/01/21 12:15 UTC NOAA

KARV 211215Z AUTO 00000KT 4SM BR OVC090 M01/M02 A2992 RMK AO2 T10151021


Station Type Date Time Source
KARV Decoded METAR 2018/01/21 12:15 UTC NOAA

Minocqua/Woodruff, Lakeland Airport/Noble F. Lee Memorial Field, WI, United States (KARV) 45-56N 089-44W
Jan 21, 2018 - 07:15 AM EST / 2018.01.21 1215 UTC
Wind: Calm:0
Visibility: 4 mile(s):0
Sky conditions: overcast
Weather: mist
Temperature: 29.3 F (-1.5 C)
Dew Point: 28.2 F (-2.1 C)
Relative Humidity: 95%
Pressure (altimeter): 29.92 in. Hg (1013 hPa)
ob: KARV 211215Z AUTO 00000KT 4SM BR OVC090 M01/M02 A2992 RMK AO2 T10151021
cycle: 12

Station Type Date Time Source
KARV TAF UTC NOAA

Error!


Example: see airport list